Bookmark and Share
Track history (hours):
 

Ekin-s

Last reported at 2014-Apr-23 14:19 UTC. Time now 2014-Apr-24 04:07 UTC.
Position N 58°00' E 005°59'.

Length 109 m; draft 5.1 m.

Type: Ship. MMSI: 271042836.

NotesDate/timePositionNaut miles runAvg speedWind from/ knotsBaromVisibWave heightAir tempDewpointWater temp
2014-Apr-23 14:19N 58°00' E 005°59'7 9.6
2014-Apr-23 13:33N 58°05' E 005°48'10 9.9
2014-Apr-23 12:33N 58°12' E 005°35'1110.6
2014-Apr-23 11:32N 58°19' E 005°19'1611.3
2014-Apr-23 10:08N 58°30' E 004°57'9 0.2
2014-Apr-21 13:25N 58°26' E 005°13'1112.1
2014-Apr-21 12:32N 58°19' E 005°27'1212.3
2014-Apr-21 11:34N 58°11' E 005°45'1212.2
2014-Apr-21 10:33N 58°03' E 006°03'6211.8
2014-Apr-21 05:17N 57°45' E 007°55'11411.4
2014-Apr-20 19:22N 59°02' E 010°35'910.9
2014-Apr-20 18:32N 59°11' E 010°37'1813.4
2014-Apr-20 17:13N 59°29' E 010°34'2412.4
2014-Apr-20 15:15N 59°53' E 010°40'3 4.1
2014-Apr-20 14:30N 59°53' E 010°46'0 0.0
2014-Apr-20 13:30N 59°53' E 010°46'0 0.0
2014-Apr-20 12:33N 59°53' E 010°46'0 0.0
2014-Apr-20 11:33N 59°53' E 010°46'0 0.0
2014-Apr-20 10:30N 59°53' E 010°46'0 0.0
2014-Apr-20 09:33N 59°53' E 010°46'0 0.0
2014-Apr-20 08:33N 59°53' E 010°46'0 0.0
2014-Apr-20 07:33N 59°53' E 010°46'0 0.0
2014-Apr-20 06:21N 59°53' E 010°46'0 0.0
2014-Apr-20 05:27N 59°53' E 010°46'2 2.6
2014-Apr-20 04:33N 59°52' E 010°41'2410.6
2014-Apr-20 02:20N 59°29' E 010°35'1011.7
2014-Apr-20 01:27N 59°19' E 010°37'1211.4
2014-Apr-20 00:25N 59°07' E 010°36'9 9.7
2014-Apr-19 23:31N 58°59' E 010°40'23710.8
2014-Apr-19 01:34N 55°35' E 006°55'1110.8
2014-Apr-19 00:34N 55°25' E 006°49'2410.4
2014-Apr-18 22:18N 55°01' E 006°48'710.0
2014-Apr-18 21:33N 54°55' E 006°53'10 9.8
2014-Apr-18 20:33N 54°46' E 007°00'10 9.8
2014-Apr-18 19:34N 54°37' E 007°07'1010.4
2014-Apr-18 18:34N 54°27' E 007°14'1110.7
2014-Apr-18 17:33N 54°18' E 007°23'1111.5
2014-Apr-18 16:34N 54°10' E 007°38'1211.5
2014-Apr-18 15:33N 54°04' E 007°55'1111.3
2014-Apr-18 14:34N 54°00' E 008°13'1111.0
2014-Apr-18 13:33N 53°58' E 008°31'9 9.3
2014-Apr-18 12:33N 53°52' E 008°44'9 8.7
2014-Apr-18 11:33N 53°51' E 008°58'1110.8
2014-Apr-18 10:34N 53°52' E 009°16'1413.5
2014-Apr-18 09:33N 53°41' E 009°30'1313.1
2014-Apr-18 08:33N 53°33' E 009°48'6 5.7
2014-Apr-18 07:33N 53°31' E 009°56'0 0.0
2014-Apr-18 06:32N 53°31' E 009°56'0 0.0
2014-Apr-18 05:32N 53°31' E 009°56'0 0.0
2014-Apr-18 04:32N 53°31' E 009°56'0 0.0
2014-Apr-18 03:32N 53°31' E 009°56'0 0.0
2014-Apr-18 02:32N 53°31' E 009°56'0 0.0
2014-Apr-18 01:32N 53°31' E 009°56'0 0.0
2014-Apr-18 00:32N 53°31' E 009°56'0 0.0
2014-Apr-17 23:32N 53°31' E 009°56'0 0.0
2014-Apr-17 22:32N 53°31' E 009°56'0 0.0
2014-Apr-17 21:32N 53°31' E 009°56'0 0.0
2014-Apr-17 20:32N 53°31' E 009°56'0 0.0
2014-Apr-17 19:32N 53°31' E 009°56'0 0.0
2014-Apr-17 18:29N 53°31' E 009°56'0 0.0
2014-Apr-17 17:32N 53°31' E 009°56'0 0.0
2014-Apr-17 16:32N 53°31' E 009°56'0 0.0
2014-Apr-17 15:32N 53°31' E 009°56'0 0.0
2014-Apr-17 14:32N 53°31' E 009°56'0 0.0
2014-Apr-17 13:26N 53°31' E 009°56'0 0.0
2014-Apr-17 12:32N 53°31' E 009°56'0 0.0
2014-Apr-17 11:32N 53°31' E 009°56'0 0.0
2014-Apr-17 10:32N 53°31' E 009°56'0 0.0
2014-Apr-17 09:32N 53°31' E 009°56'0 0.0
2014-Apr-17 08:32N 53°31' E 009°56'5 5.5
2014-Apr-17 07:33N 53°33' E 009°48'9 9.4
2014-Apr-17 06:33N 53°37' E 009°33'0 0.1
2014-Apr-17 05:33N 53°37' E 009°33'0 0.1
2014-Apr-17 04:24N 53°37' E 009°33'0 0.1
2014-Apr-17 03:33N 53°37' E 009°33'4 4.2
2014-Apr-17 02:34N 53°40' E 009°30'1414.5
2014-Apr-17 01:33N 53°52' E 009°16'1313.3
2014-Apr-17 00:34N 53°50' E 008°54'1413.6
2014-Apr-16 23:33N 53°58' E 008°34'1414.3
2014-Apr-16 22:33N 53°59' E 008°10'4 4.0
2014-Apr-16 21:31N 54°03' E 008°08'0 0.1
2014-Apr-16 20:31N 54°03' E 008°08'0 0.1
2014-Apr-16 19:31N 54°03' E 008°08'0 0.0
2014-Apr-16 18:28N 54°03' E 008°08'0 0.0
2014-Apr-16 17:25N 54°03' E 008°08'0 0.0
2014-Apr-16 16:31N 54°03' E 008°08'0 0.0
2014-Apr-16 15:31N 54°03' E 008°08'0 0.0
2014-Apr-16 14:28N 54°03' E 008°08'0 0.1
2014-Apr-16 13:28N 54°03' E 008°08'0 0.1
2014-Apr-16 12:31N 54°03' E 008°08'0 0.0
2014-Apr-16 11:28N 54°03' E 008°08'0 0.0
2014-Apr-16 10:22N 54°03' E 008°08'0 0.0
2014-Apr-16 09:33N 54°03' E 008°08'0 0.4
2014-Apr-16 08:33N 54°03' E 008°07'1313.4
2014-Apr-16 07:33N 54°06' E 007°45'1313.4
2014-Apr-16 06:33N 54°15' E 007°28'1211.9
2014-Apr-16 05:32N 54°25' E 007°17'1111.0
2014-Apr-16 04:33N 54°35' E 007°09'1010.0
2014-Apr-16 03:34N 54°44' E 007°01'1010.2
2014-Apr-16 02:33N 54°53' E 006°54'1010.4
2014-Apr-16 01:33N 55°03' E 006°47'1110.8
2014-Apr-16 00:33N 55°13' E 006°40'1111.1
2014-Apr-15 23:33N 55°23' E 006°33'  

Dump ship's entire track history

sailing weather and tide predictions

Ekin-s — TCMW3 — position and weather